Time;durP1;ratioP1;P1;durP2;ratioP2;P2;SDS_P1;SDS_P2;PMS_P1;PMS_P2;Temp;Humidity;BMP_temperature;BMP_pressure;BME280_temperature;BME280_humidity;BME280_pressure;Samples;Min_cycle;Max_cycle;Signal;HPM_P1;HPM_P2
2022/01/11 00:01:14;;;;;;;64.93;43.07;;;;;;;;;;5016524;28;20038;-61
2022/01/11 00:03:41;;;;;;;60.60;40.50;;;;;;;;;;5015538;28;20065;-62
2022/01/11 00:06:23;;;;;;;59.33;41.23;;;;;;;;;;5014915;28;20022;-62
2022/01/11 00:08:51;;;;;;;54.40;39.77;;;;;;;;;;5013009;28;20025;-62
2022/01/11 00:11:17;;;;;;;57.63;39.67;;;;;;;;;;5016363;28;20065;-61
2022/01/11 00:13:43;;;;;;;55.33;38.20;;;;;;;;;;4997746;28;20109;-61
2022/01/11 00:16:11;;;;;;;54.97;38.53;;;;;;;;;;5005317;28;20037;-61
2022/01/11 00:18:37;;;;;;;49.83;36.97;;;;;;;;;;4998902;28;20121;-61
2022/01/11 00:21:03;;;;;;;46.30;35.03;;;;;;;;;;4985685;28;20034;-61
2022/01/11 00:25:56;;;;;;;45.53;36.07;;;;;;;;;;5015550;28;20045;-61
2022/01/11 00:28:23;;;;;;;47.67;36.10;;;;;;;;;;5000995;28;20034;-61
2022/01/11 00:30:50;;;;;;;49.73;35.27;;;;;;;;;;4996119;28;20422;-61
2022/01/11 00:33:21;;;;;;;44.63;34.23;;;;;;;;;;4995950;28;20034;-61
2022/01/11 00:35:58;;;;;;;45.37;34.20;;;;;;;;;;5014878;28;20022;-62
2022/01/11 00:38:25;;;;;;;41.80;31.93;;;;;;;;;;5001304;28;20038;-62
2022/01/11 00:40:55;;;;;;;45.13;33.87;;;;;;;;;;4995628;28;20030;-62
2022/01/11 00:43:23;;;;;;;44.47;33.63;;;;;;;;;;5005453;28;20387;-63
2022/01/11 00:45:49;;;;;;;42.57;32.17;;;;;;;;;;5015209;28;20026;-62
2022/01/11 00:48:16;;;;;;;42.67;32.33;;;;;;;;;;5011501;28;20152;-66
2022/01/11 00:50:42;;;;;;;40.20;31.27;;;;;;;;;;5014670;28;20030;-62
2022/01/11 00:53:09;;;;;;;39.87;31.03;;;;;;;;;;4999170;28;20026;-62
2022/01/11 00:55:35;;;;;;;41.87;31.60;;;;;;;;;;5011768;28;20053;-62
2022/01/11 00:58:04;;;;;;;39.07;31.03;;;;;;;;;;5004152;28;20373;-62
2022/01/11 01:00:32;;;;;;;38.53;29.70;;;;;;;;;;4995750;28;20085;-62
2022/01/11 01:02:58;;;;;;;37.20;30.27;;;;;;;;;;4999713;28;20081;-62
2022/01/11 01:05:24;;;;;;;41.13;30.70;;;;;;;;;;5010719;28;20041;-62
2022/01/11 01:07:51;;;;;;;39.60;30.00;;;;;;;;;;5006445;28;20486;-62
2022/01/11 01:10:26;;;;;;;41.47;30.20;;;;;;;;;;5012054;28;20034;-62
2022/01/11 01:12:56;;;;;;;37.27;29.67;;;;;;;;;;5001668;28;20080;-62
2022/01/11 01:15:22;;;;;;;36.83;28.90;;;;;;;;;;5009770;28;20025;-62
2022/01/11 01:17:48;;;;;;;35.73;26.90;;;;;;;;;;5006530;28;20030;-62
2022/01/11 01:20:15;;;;;;;36.33;27.67;;;;;;;;;;5009021;28;20030;-62
2022/01/11 01:22:41;;;;;;;35.27;26.73;;;;;;;;;;5003384;28;20026;-62
2022/01/11 01:25:08;;;;;;;33.43;27.40;;;;;;;;;;5006769;28;20030;-62
2022/01/11 01:27:34;;;;;;;36.83;28.37;;;;;;;;;;4995009;28;20030;-61
2022/01/11 01:30:00;;;;;;;34.83;28.23;;;;;;;;;;5014796;28;20033;-61
2022/01/11 01:32:26;;;;;;;37.97;29.20;;;;;;;;;;5009638;28;20081;-61
2022/01/11 01:34:54;;;;;;;38.43;29.80;;;;;;;;;;4983700;28;20026;-61
2022/01/11 01:37:21;;;;;;;38.93;29.23;;;;;;;;;;4995068;28;20475;-61
2022/01/11 01:39:47;;;;;;;40.90;29.43;;;;;;;;;;4995056;28;20260;-61
2022/01/11 01:42:13;;;;;;;39.23;30.63;;;;;;;;;;4998859;28;20036;-61
2022/01/11 01:44:41;;;;;;;38.27;30.30;;;;;;;;;;5014159;28;20104;-61
2022/01/11 01:47:07;;;;;;;38.43;29.87;;;;;;;;;;5012915;28;20018;-61
2022/01/11 01:49:35;;;;;;;42.77;32.47;;;;;;;;;;4995771;28;20022;-62
2022/01/11 01:52:02;;;;;;;37.97;31.40;;;;;;;;;;5009577;28;20402;-61
2022/01/11 01:54:28;;;;;;;44.87;30.93;;;;;;;;;;5013598;28;20026;-62
2022/01/11 01:56:54;;;;;;;41.40;30.30;;;;;;;;;;5013880;28;20029;-61
2022/01/11 01:59:20;;;;;;;40.80;31.17;;;;;;;;;;4995236;28;20073;-61
2022/01/11 02:01:48;;;;;;;39.53;29.97;;;;;;;;;;4980002;28;20040;-61
2022/01/11 02:04:15;;;;;;;42.60;31.57;;;;;;;;;;5000934;28;20154;-62
2022/01/11 02:06:42;;;;;;;42.10;30.90;;;;;;;;;;5012816;28;20117;-61
2022/01/11 02:09:08;;;;;;;38.87;30.17;;;;;;;;;;4997118;28;20026;-62
2022/01/11 02:11:34;;;;;;;40.87;30.53;;;;;;;;;;4994149;28;20042;-62
2022/01/11 02:14:00;;;;;;;41.17;31.17;;;;;;;;;;5000669;28;20529;-61
2022/01/11 02:16:26;;;;;;;42.93;31.07;;;;;;;;;;5013729;28;20034;-62
2022/01/11 02:18:53;;;;;;;42.27;30.73;;;;;;;;;;4999398;28;20030;-62
2022/01/11 02:21:20;;;;;;;40.67;29.83;;;;;;;;;;4994150;28;20097;-62
2022/01/11 02:23:46;;;;;;;41.47;30.30;;;;;;;;;;5004320;28;20049;-62
2022/01/11 02:26:13;;;;;;;43.40;29.63;;;;;;;;;;5013346;28;20045;-62
2022/01/11 02:28:39;;;;;;;42.33;29.07;;;;;;;;;;5001112;28;20031;-62
2022/01/11 02:31:07;;;;;;;40.47;28.20;;;;;;;;;;5010541;28;20034;-62
2022/01/11 02:33:36;;;;;;;36.33;27.80;;;;;;;;;;5001492;28;20081;-62
2022/01/11 02:36:04;;;;;;;41.70;29.23;;;;;;;;;;4994907;28;20039;-62
2022/01/11 02:38:30;;;;;;;37.03;27.97;;;;;;;;;;5006471;28;20100;-62
2022/01/11 02:40:57;;;;;;;40.53;28.10;;;;;;;;;;5005673;28;20022;-62
2022/01/11 02:43:23;;;;;;;39.60;27.50;;;;;;;;;;5006815;28;20475;-62
2022/01/11 02:45:49;;;;;;;37.63;27.63;;;;;;;;;;4991442;28;20057;-62
2022/01/11 02:48:15;;;;;;;38.03;25.90;;;;;;;;;;4994888;28;20026;-61
2022/01/11 02:50:41;;;;;;;38.77;28.30;;;;;;;;;;5007439;28;20065;-62
2022/01/11 02:53:08;;;;;;;37.67;28.80;;;;;;;;;;5003418;28;20589;-61
2022/01/11 02:55:37;;;;;;;38.47;28.43;;;;;;;;;;5012452;28;20025;-62
2022/01/11 02:58:03;;;;;;;38.20;28.43;;;;;;;;;;4994462;28;20061;-62
2022/01/11 03:00:29;;;;;;;35.20;26.87;;;;;;;;;;5011298;28;20026;-61
2022/01/11 03:02:55;;;;;;;38.57;27.83;;;;;;;;;;5002725;28;20033;-61
2022/01/11 03:05:22;;;;;;;36.53;28.13;;;;;;;;;;5012021;28;20556;-61
2022/01/11 03:07:48;;;;;;;36.10;27.57;;;;;;;;;;4998808;28;20032;-61
2022/01/11 03:10:32;;;;;;;39.20;28.57;;;;;;;;;;5003050;28;20386;-61
2022/01/11 03:12:58;;;;;;;36.73;27.00;;;;;;;;;;5001717;28;20034;-61
2022/01/11 03:15:25;;;;;;;36.40;27.73;;;;;;;;;;5011525;28;20041;-61
2022/01/11 03:17:51;;;;;;;36.73;27.03;;;;;;;;;;4999489;28;20026;-61
2022/01/11 03:20:17;;;;;;;37.80;26.97;;;;;;;;;;5002484;28;20026;-61
2022/01/11 03:22:43;;;;;;;36.33;26.77;;;;;;;;;;5003860;28;20601;-61
2022/01/11 03:25:09;;;;;;;36.07;26.53;;;;;;;;;;4995635;28;20021;-61
2022/01/11 03:27:35;;;;;;;40.00;27.37;;;;;;;;;;5012125;28;20519;-61
2022/01/11 03:30:02;;;;;;;39.07;29.33;;;;;;;;;;5012475;28;20418;-61
2022/01/11 03:32:28;;;;;;;36.00;28.10;;;;;;;;;;5003239;28;20035;-61
2022/01/11 03:34:54;;;;;;;37.77;27.70;;;;;;;;;;5012941;28;20025;-61
2022/01/11 03:37:20;;;;;;;36.27;27.77;;;;;;;;;;4997785;28;20088;-61
2022/01/11 03:39:47;;;;;;;38.53;27.63;;;;;;;;;;5008379;28;20030;-61
2022/01/11 03:42:13;;;;;;;39.83;27.57;;;;;;;;;;5011865;28;20153;-62
2022/01/11 03:44:39;;;;;;;38.40;28.50;;;;;;;;;;5009425;28;20105;-61
2022/01/11 03:47:05;;;;;;;41.43;27.90;;;;;;;;;;5006476;28;20128;-61
2022/01/11 03:49:31;;;;;;;38.40;27.83;;;;;;;;;;5004363;28;20034;-61
2022/01/11 03:51:57;;;;;;;36.77;26.57;;;;;;;;;;5007619;28;20035;-61
2022/01/11 03:54:27;;;;;;;37.33;26.70;;;;;;;;;;5011342;28;20030;-61
2022/01/11 03:56:53;;;;;;;37.07;26.70;;;;;;;;;;5008811;28;20093;-61
2022/01/11 03:59:20;;;;;;;34.37;26.17;;;;;;;;;;5004030;28;20026;-61
2022/01/11 04:01:46;;;;;;;35.13;24.83;;;;;;;;;;5009840;28;20029;-61
2022/01/11 04:04:13;;;;;;;31.83;24.13;;;;;;;;;;5010105;28;20022;-61
2022/01/11 04:06:40;;;;;;;38.03;27.10;;;;;;;;;;5010534;28;20383;-62
2022/01/11 04:09:07;;;;;;;30.60;23.40;;;;;;;;;;4999103;28;20022;-62
2022/01/11 04:11:34;;;;;;;34.40;25.20;;;;;;;;;;5010822;28;20105;-62
2022/01/11 04:14:00;;;;;;;30.30;23.50;;;;;;;;;;4992554;28;20054;-62
2022/01/11 04:16:26;;;;;;;32.37;24.60;;;;;;;;;;4996591;28;20022;-62
2022/01/11 04:18:52;;;;;;;36.53;23.80;;;;;;;;;;5008032;28;20029;-62
2022/01/11 04:21:18;;;;;;;36.67;24.40;;;;;;;;;;5014803;28;20038;-61
2022/01/11 04:23:44;;;;;;;30.97;23.80;;;;;;;;;;4997374;28;20112;-62
2022/01/11 04:26:10;;;;;;;30.77;21.80;;;;;;;;;;4996227;28;20042;-62
2022/01/11 04:28:36;;;;;;;34.17;23.87;;;;;;;;;;5006566;28;20022;-62
2022/01/11 04:31:02;;;;;;;28.83;22.20;;;;;;;;;;5013700;28;20112;-62
2022/01/11 04:33:29;;;;;;;33.03;23.83;;;;;;;;;;4999586;28;20113;-61
2022/01/11 04:35:55;;;;;;;31.23;24.00;;;;;;;;;;4996996;28;20502;-62
2022/01/11 04:38:22;;;;;;;31.73;23.27;;;;;;;;;;5010790;28;20057;-61
2022/01/11 04:40:48;;;;;;;34.40;25.03;;;;;;;;;;5012218;28;20472;-61
2022/01/11 04:43:14;;;;;;;35.57;24.80;;;;;;;;;;5001606;28;20093;-62
2022/01/11 04:45:40;;;;;;;31.43;24.47;;;;;;;;;;5015772;28;20483;-62
2022/01/11 04:48:07;;;;;;;36.40;25.63;;;;;;;;;;5002316;28;20041;-61
2022/01/11 04:50:33;;;;;;;32.37;24.47;;;;;;;;;;4995926;28;20030;-61
2022/01/11 04:52:59;;;;;;;32.67;24.97;;;;;;;;;;5014077;28;20037;-61
2022/01/11 04:55:25;;;;;;;32.47;24.70;;;;;;;;;;5014539;28;20084;-62
2022/01/11 04:57:51;;;;;;;34.00;23.67;;;;;;;;;;5004681;28;20538;-62
2022/01/11 05:00:19;;;;;;;33.93;24.67;;;;;;;;;;5006356;28;20025;-61
2022/01/11 05:02:45;;;;;;;31.77;23.70;;;;;;;;;;5004405;28;20053;-62
2022/01/11 05:05:11;;;;;;;29.43;22.40;;;;;;;;;;5014157;28;20069;-61
2022/01/11 05:07:37;;;;;;;34.80;25.37;;;;;;;;;;5007109;28;20033;-62
2022/01/11 05:10:04;;;;;;;32.70;22.93;;;;;;;;;;4979581;28;20034;-61
2022/01/11 05:12:30;;;;;;;28.87;21.93;;;;;;;;;;5008007;28;20046;-61
2022/01/11 05:14:56;;;;;;;28.73;21.63;;;;;;;;;;5015468;28;20029;-61
2022/01/11 05:17:23;;;;;;;28.17;21.27;;;;;;;;;;5010499;28;20033;-62
2022/01/11 05:19:49;;;;;;;30.23;20.83;;;;;;;;;;5002373;28;20114;-61
2022/01/11 05:22:15;;;;;;;27.77;20.90;;;;;;;;;;5011750;28;20092;-62
2022/01/11 05:24:41;;;;;;;31.43;21.40;;;;;;;;;;5002152;28;20029;-61
2022/01/11 05:27:08;;;;;;;30.23;19.33;;;;;;;;;;5012246;28;20497;-61
2022/01/11 05:29:34;;;;;;;29.77;19.63;;;;;;;;;;4977823;28;20023;-62
2022/01/11 05:32:02;;;;;;;26.17;19.90;;;;;;;;;;4995303;28;20108;-61
2022/01/11 05:34:28;;;;;;;26.63;19.80;;;;;;;;;;5010688;28;20021;-61
2022/01/11 05:36:57;;;;;;;37.60;20.83;;;;;;;;;;5013854;28;20038;-61
2022/01/11 05:39:23;;;;;;;28.97;19.43;;;;;;;;;;5005322;28;20030;-61
2022/01/11 05:41:49;;;;;;;26.23;19.57;;;;;;;;;;5013850;28;20360;-62
2022/01/11 05:44:15;;;;;;;30.03;20.70;;;;;;;;;;4987064;28;20081;-62
2022/01/11 05:46:41;;;;;;;27.90;19.70;;;;;;;;;;5014183;28;20506;-61
2022/01/11 05:49:07;;;;;;;26.33;18.67;;;;;;;;;;5005651;28;20383;-61
2022/01/11 05:51:33;;;;;;;29.53;19.83;;;;;;;;;;5014344;28;20030;-62
2022/01/11 05:53:59;;;;;;;28.00;18.97;;;;;;;;;;4998628;28;20061;-62
2022/01/11 05:56:25;;;;;;;28.73;18.90;;;;;;;;;;5013476;28;20022;-62
2022/01/11 05:58:52;;;;;;;26.17;18.70;;;;;;;;;;5005382;28;20057;-62
2022/01/11 06:01:18;;;;;;;26.70;17.30;;;;;;;;;;5012038;28;20030;-62
2022/01/11 06:03:44;;;;;;;26.93;18.83;;;;;;;;;;4988184;28;20034;-62
2022/01/11 06:06:11;;;;;;;24.20;18.47;;;;;;;;;;4994035;28;20113;-62
2022/01/11 06:08:37;;;;;;;28.30;20.17;;;;;;;;;;4996989;28;20025;-63
2022/01/11 06:11:03;;;;;;;28.50;20.53;;;;;;;;;;5009623;28;20048;-62
2022/01/11 06:13:29;;;;;;;26.63;19.67;;;;;;;;;;5008785;28;20053;-62
2022/01/11 06:15:55;;;;;;;30.30;20.83;;;;;;;;;;5011682;28;20045;-62
2022/01/11 06:18:21;;;;;;;29.20;21.53;;;;;;;;;;5005502;28;20451;-62
2022/01/11 06:20:47;;;;;;;29.07;22.00;;;;;;;;;;5012570;28;20034;-62
2022/01/11 06:23:13;;;;;;;32.10;23.10;;;;;;;;;;5005293;28;20026;-62
2022/01/11 06:25:39;;;;;;;32.87;22.37;;;;;;;;;;5003312;28;20035;-62
2022/01/11 06:28:05;;;;;;;35.03;22.17;;;;;;;;;;5007030;28;20026;-62
2022/01/11 06:30:31;;;;;;;29.30;21.70;;;;;;;;;;5011863;28;20041;-62
2022/01/11 06:32:57;;;;;;;35.70;23.03;;;;;;;;;;4992534;28;20046;-62
2022/01/11 06:35:24;;;;;;;31.23;22.20;;;;;;;;;;4999867;28;20083;-62
2022/01/11 06:37:50;;;;;;;32.47;22.87;;;;;;;;;;5005722;28;20030;-61
2022/01/11 06:40:17;;;;;;;31.00;22.23;;;;;;;;;;5010499;28;20450;-62
2022/01/11 06:42:44;;;;;;;32.77;23.47;;;;;;;;;;4999541;28;20026;-62
2022/01/11 06:45:11;;;;;;;30.63;22.00;;;;;;;;;;5004348;28;20382;-62
2022/01/11 06:47:46;;;;;;;33.77;22.13;;;;;;;;;;5009615;28;20160;-62
2022/01/11 06:50:12;;;;;;;33.50;22.33;;;;;;;;;;5012713;28;20032;-62
2022/01/11 06:52:38;;;;;;;29.60;23.27;;;;;;;;;;5007175;28;20053;-62
2022/01/11 06:55:06;;;;;;;29.47;22.00;;;;;;;;;;5003427;28;20048;-62
2022/01/11 06:57:32;;;;;;;32.20;20.73;;;;;;;;;;5009234;28;20038;-63
2022/01/11 06:59:58;;;;;;;30.50;21.40;;;;;;;;;;5010974;28;20044;-62
2022/01/11 07:02:24;;;;;;;29.63;20.20;;;;;;;;;;5012388;28;20558;-61
2022/01/11 07:04:50;;;;;;;32.23;21.03;;;;;;;;;;5010247;28;20033;-62
2022/01/11 07:07:16;;;;;;;28.30;21.60;;;;;;;;;;4997897;28;20022;-62
2022/01/11 07:09:43;;;;;;;28.73;20.73;;;;;;;;;;5009809;28;20483;-62
2022/01/11 07:12:09;;;;;;;26.37;19.77;;;;;;;;;;5005944;28;20037;-62
2022/01/11 07:14:35;;;;;;;24.53;18.53;;;;;;;;;;5003648;28;20045;-62
2022/01/11 07:17:01;;;;;;;29.33;19.60;;;;;;;;;;5011116;28;20164;-62
2022/01/11 07:19:29;;;;;;;30.13;20.40;;;;;;;;;;5011088;28;20045;-62
2022/01/11 07:21:58;;;;;;;30.77;21.13;;;;;;;;;;5010464;28;20056;-61
2022/01/11 07:24:25;;;;;;;34.00;22.23;;;;;;;;;;5011039;28;20022;-62
2022/01/11 07:26:51;;;;;;;35.33;22.60;;;;;;;;;;5002088;28;20037;-62
2022/01/11 07:29:17;;;;;;;30.30;21.77;;;;;;;;;;5006422;28;20025;-61
2022/01/11 07:31:43;;;;;;;28.40;20.90;;;;;;;;;;5012203;28;20034;-61
2022/01/11 07:34:09;;;;;;;33.70;21.17;;;;;;;;;;4997597;28;20036;-61
2022/01/11 07:36:36;;;;;;;27.83;18.37;;;;;;;;;;5017914;28;20030;-63
2022/01/11 07:39:02;;;;;;;33.23;21.73;;;;;;;;;;5010607;28;20034;-63
2022/01/11 07:41:28;;;;;;;34.10;21.87;;;;;;;;;;5009923;28;20474;-65
2022/01/11 07:43:54;;;;;;;30.03;19.50;;;;;;;;;;5000565;28;20056;-64
2022/01/11 07:46:20;;;;;;;31.13;21.60;;;;;;;;;;5009615;28;20022;-63
2022/01/11 07:48:46;;;;;;;31.67;19.93;;;;;;;;;;5003937;28;20025;-63
2022/01/11 07:51:12;;;;;;;28.90;20.03;;;;;;;;;;5006682;28;20383;-63
2022/01/11 07:53:39;;;;;;;25.07;18.70;;;;;;;;;;5013343;28;20135;-63
2022/01/11 07:56:05;;;;;;;28.20;19.27;;;;;;;;;;5000343;28;20045;-63
2022/01/11 07:58:31;;;;;;;28.53;19.87;;;;;;;;;;4997871;28;20056;-63
2022/01/11 08:00:57;;;;;;;26.50;17.87;;;;;;;;;;5013768;28;20041;-63
2022/01/11 08:03:23;;;;;;;24.67;17.90;;;;;;;;;;5011411;28;20037;-62
2022/01/11 08:05:50;;;;;;;34.27;18.10;;;;;;;;;;5009715;28;20022;-63
2022/01/11 08:08:16;;;;;;;25.27;17.50;;;;;;;;;;5010169;28;20026;-63
2022/01/11 08:10:42;;;;;;;28.23;16.17;;;;;;;;;;5012326;28;20041;-63
2022/01/11 08:13:10;;;;;;;24.70;16.50;;;;;;;;;;4994819;28;20046;-64
2022/01/11 08:15:37;;;;;;;25.27;16.83;;;;;;;;;;5010848;28;20068;-64
2022/01/11 08:18:04;;;;;;;20.70;14.53;;;;;;;;;;5011192;28;20395;-63
2022/01/11 08:20:30;;;;;;;24.30;14.03;;;;;;;;;;5008620;28;20041;-63
2022/01/11 08:22:56;;;;;;;21.97;14.67;;;;;;;;;;5010375;28;20022;-63
2022/01/11 08:25:23;;;;;;;20.33;14.27;;;;;;;;;;5010034;28;20164;-63
2022/01/11 08:27:49;;;;;;;22.73;13.43;;;;;;;;;;4993684;28;20018;-64
2022/01/11 08:30:15;;;;;;;20.90;13.03;;;;;;;;;;5011554;28;20037;-64
2022/01/11 08:32:41;;;;;;;18.73;12.03;;;;;;;;;;5008756;28;20041;-64
2022/01/11 08:35:07;;;;;;;21.00;13.13;;;;;;;;;;5008659;28;20037;-64
2022/01/11 08:37:34;;;;;;;17.47;11.00;;;;;;;;;;5005912;28;20027;-64
2022/01/11 08:40:00;;;;;;;18.23;11.97;;;;;;;;;;5006083;28;20053;-64
2022/01/11 08:42:27;;;;;;;16.63;10.80;;;;;;;;;;4996393;28;20119;-64
2022/01/11 08:44:54;;;;;;;18.80;12.33;;;;;;;;;;4999486;28;20103;-64
2022/01/11 08:47:20;;;;;;;18.07;11.73;;;;;;;;;;5013872;28;20358;-64
2022/01/11 08:49:47;;;;;;;18.97;10.90;;;;;;;;;;4999769;28;20097;-64
2022/01/11 08:52:13;;;;;;;19.33;12.00;;;;;;;;;;5009858;28;20034;-63
2022/01/11 08:54:40;;;;;;;19.63;11.93;;;;;;;;;;5014593;28;20550;-64
2022/01/11 08:57:06;;;;;;;19.83;11.63;;;;;;;;;;5000617;28;20502;-62
2022/01/11 08:59:32;;;;;;;15.03;10.43;;;;;;;;;;5013495;28;20059;-64
2022/01/11 09:01:59;;;;;;;17.67;10.20;;;;;;;;;;5014710;28;20439;-62
2022/01/11 09:04:34;;;;;;;14.60;9.47;;;;;;;;;;5001507;28;20427;-62
2022/01/11 09:07:00;;;;;;;19.13;9.83;;;;;;;;;;5012596;28;20482;-62
2022/01/11 09:09:28;;;;;;;15.60;10.50;;;;;;;;;;5013421;28;20022;-62
2022/01/11 09:11:54;;;;;;;16.27;10.00;;;;;;;;;;5009356;28;20125;-62
2022/01/11 09:14:20;;;;;;;16.60;10.70;;;;;;;;;;5002932;28;20431;-62
2022/01/11 09:16:46;;;;;;;18.97;10.40;;;;;;;;;;5010565;28;20095;-63
2022/01/11 09:19:13;;;;;;;17.47;10.53;;;;;;;;;;5004528;28;20026;-63
2022/01/11 09:21:39;;;;;;;15.03;9.10;;;;;;;;;;4995855;28;20042;-63
2022/01/11 09:24:05;;;;;;;16.23;10.90;;;;;;;;;;4993033;28;20172;-63
2022/01/11 09:26:32;;;;;;;13.80;10.47;;;;;;;;;;5002936;28;20042;-63
2022/01/11 09:28:58;;;;;;;15.63;10.57;;;;;;;;;;5010839;28;20030;-63
2022/01/11 09:31:24;;;;;;;15.83;10.00;;;;;;;;;;5009428;28;20033;-63
2022/01/11 09:33:50;;;;;;;17.73;9.57;;;;;;;;;;5013673;28;20037;-64
2022/01/11 09:36:17;;;;;;;11.87;9.03;;;;;;;;;;5010513;28;20036;-63
2022/01/11 09:38:43;;;;;;;14.73;8.47;;;;;;;;;;5013807;28;20389;-63
2022/01/11 09:41:09;;;;;;;19.23;12.97;;;;;;;;;;5010547;28;20461;-63
2022/01/11 09:43:35;;;;;;;25.97;17.37;;;;;;;;;;5014322;28;20059;-63
2022/01/11 09:46:02;;;;;;;25.67;17.53;;;;;;;;;;5011281;28;20474;-63
2022/01/11 09:48:32;;;;;;;26.50;18.73;;;;;;;;;;4992612;28;20034;-63
2022/01/11 09:50:58;;;;;;;32.70;20.80;;;;;;;;;;5009947;28;20037;-63
2022/01/11 09:53:24;;;;;;;31.80;20.90;;;;;;;;;;5002675;28;20066;-63
2022/01/11 09:55:50;;;;;;;26.93;19.70;;;;;;;;;;4995569;28;20047;-64
2022/01/11 09:58:16;;;;;;;31.60;19.90;;;;;;;;;;4998074;28;20041;-63
2022/01/11 10:00:42;;;;;;;31.47;17.93;;;;;;;;;;4994930;28;20124;-63
2022/01/11 10:03:09;;;;;;;27.57;18.93;;;;;;;;;;4996257;28;20106;-64
2022/01/11 10:05:37;;;;;;;32.43;19.50;;;;;;;;;;4993668;28;20034;-63
2022/01/11 10:08:21;;;;;;;29.03;19.67;;;;;;;;;;5010558;28;20033;-64
2022/01/11 10:10:48;;;;;;;37.15;20.70;;;;;;;;;;5006231;28;20053;-64
2022/01/11 10:13:30;;;;;;;34.27;20.57;;;;;;;;;;5006273;28;20058;-63
2022/01/11 10:15:56;;;;;;;31.13;22.00;;;;;;;;;;4984034;28;20029;-64
2022/01/11 10:18:36;;;;;;;34.00;21.73;;;;;;;;;;5007666;28;20033;-64
2022/01/11 10:21:05;;;;;;;34.33;20.73;;;;;;;;;;5010891;28;20029;-63
2022/01/11 10:23:34;;;;;;;30.87;21.83;;;;;;;;;;5009251;28;20109;-64
2022/01/11 10:26:00;;;;;;;32.37;22.27;;;;;;;;;;4992104;28;20030;-63
2022/01/11 10:28:34;;;;;;;32.03;23.00;;;;;;;;;;4995051;28;20044;-63
2022/01/11 10:31:00;;;;;;;33.53;25.37;;;;;;;;;;5009012;28;20030;-63
2022/01/11 10:33:26;;;;;;;37.70;26.33;;;;;;;;;;5011600;28;20457;-63
2022/01/11 10:35:52;;;;;;;38.53;27.87;;;;;;;;;;5010205;28;20037;-63
2022/01/11 10:38:25;;;;;;;40.43;29.43;;;;;;;;;;5005393;28;20508;-63
2022/01/11 10:40:51;;;;;;;41.83;28.67;;;;;;;;;;4994107;28;20372;-63
2022/01/11 10:43:19;;;;;;;44.43;31.67;;;;;;;;;;5010690;28;20033;-63
2022/01/11 10:45:49;;;;;;;38.47;29.73;;;;;;;;;;5004901;28;20034;-63
2022/01/11 10:48:19;;;;;;;40.67;30.50;;;;;;;;;;5010273;28;20112;-63
2022/01/11 10:50:47;;;;;;;35.93;28.93;;;;;;;;;;5008920;28;20030;-63
2022/01/11 10:53:32;;;;;;;35.30;27.10;;;;;;;;;;5008874;28;20541;-63
2022/01/11 10:55:59;;;;;;;35.33;26.17;;;;;;;;;;5007476;28;20037;-64
2022/01/11 10:58:28;;;;;;;36.70;25.90;;;;;;;;;;5006896;28;20410;-63
2022/01/11 11:00:55;;;;;;;36.90;26.63;;;;;;;;;;5011427;28;20026;-63
2022/01/11 11:03:26;;;;;;;33.20;23.73;;;;;;;;;;5007075;28;20098;-64
2022/01/11 11:05:54;;;;;;;35.60;26.70;;;;;;;;;;5005596;28;20109;-63
2022/01/11 11:08:22;;;;;;;36.53;26.80;;;;;;;;;;5012723;28;20034;-63
2022/01/11 11:10:49;;;;;;;35.43;26.00;;;;;;;;;;5009878;28;20057;-62
2022/01/11 11:13:20;;;;;;;35.17;24.93;;;;;;;;;;5011571;28;20054;-63
2022/01/11 11:15:47;;;;;;;28.67;22.50;;;;;;;;;;5011708;28;20030;-63
2022/01/11 11:18:25;;;;;;;31.43;23.03;;;;;;;;;;4995399;28;20025;-63
2022/01/11 11:20:51;;;;;;;29.07;21.77;;;;;;;;;;5009240;28;20093;-62
2022/01/11 11:23:17;;;;;;;29.57;22.33;;;;;;;;;;5010163;28;20026;-63
2022/01/11 11:25:44;;;;;;;37.93;21.63;;;;;;;;;;5004469;28;20109;-63
2022/01/11 11:28:10;;;;;;;29.93;21.73;;;;;;;;;;5015798;28;20049;-63
2022/01/11 11:30:36;;;;;;;27.60;21.57;;;;;;;;;;5009266;28;20392;-63
2022/01/11 11:33:03;;;;;;;31.70;22.83;;;;;;;;;;5009155;28;20120;-62
2022/01/11 11:35:29;;;;;;;32.63;23.50;;;;;;;;;;5013429;28;20026;-63
2022/01/11 11:37:57;;;;;;;30.67;23.40;;;;;;;;;;5014750;28;20088;-63
2022/01/11 11:40:25;;;;;;;32.30;23.17;;;;;;;;;;5013322;28;20022;-63
2022/01/11 11:42:53;;;;;;;32.27;23.13;;;;;;;;;;5013588;28;20034;-63
2022/01/11 11:45:21;;;;;;;30.03;22.10;;;;;;;;;;5011720;28;20080;-63
2022/01/11 11:47:47;;;;;;;27.83;21.10;;;;;;;;;;4996970;28;20487;-62
2022/01/11 11:50:15;;;;;;;25.73;20.13;;;;;;;;;;5000879;28;20041;-61
2022/01/11 11:52:42;;;;;;;26.27;19.70;;;;;;;;;;5012854;28;20077;-62
2022/01/11 11:55:28;;;;;;;27.13;18.93;;;;;;;;;;5009248;28;20017;-63
2022/01/11 11:58:01;;;;;;;24.23;19.73;;;;;;;;;;5007802;28;20038;-63
2022/01/11 12:00:31;;;;;;;25.40;19.00;;;;;;;;;;4999885;28;20022;-63
2022/01/11 12:03:01;;;;;;;26.87;19.27;;;;;;;;;;5014255;28;20080;-63
2022/01/11 12:05:44;;;;;;;28.10;18.07;;;;;;;;;;5010516;28;20699;-63
2022/01/11 12:08:38;;;;;;;21.77;16.27;;;;;;;;;;5002270;28;20566;-62
2022/01/11 12:11:11;;;;;;;25.53;16.73;;;;;;;;;;4994190;28;20079;-62
2022/01/11 12:13:41;;;;;;;23.70;15.37;;;;;;;;;;5013698;28;20045;-62
2022/01/11 12:16:38;;;;;;;21.47;16.17;;;;;;;;;;5012601;28;20029;-63
2022/01/11 12:19:14;;;;;;;23.30;14.93;;;;;;;;;;4999073;28;20022;-64
2022/01/11 12:21:42;;;;;;;19.17;14.03;;;;;;;;;;5014488;28;20055;-63
2022/01/11 12:24:08;;;;;;;21.00;15.50;;;;;;;;;;5014061;28;20104;-63
2022/01/11 12:26:35;;;;;;;21.73;14.20;;;;;;;;;;5009011;28;20022;-63
2022/01/11 12:29:04;;;;;;;18.00;13.47;;;;;;;;;;5011261;28;20026;-63
2022/01/11 12:31:32;;;;;;;16.33;12.77;;;;;;;;;;5010015;28;20045;-63
2022/01/11 12:33:58;;;;;;;15.40;11.90;;;;;;;;;;5012320;28;20444;-63
2022/01/11 12:36:43;;;;;;;17.03;12.60;;;;;;;;;;5011863;28;20026;-63
2022/01/11 12:39:09;;;;;;;18.58;11.25;;;;;;;;;;5010809;28;20109;-63
2022/01/11 12:41:39;;;;;;;14.87;11.00;;;;;;;;;;5013773;28;20034;-63
2022/01/11 12:44:27;;;;;;;11.53;9.20;;;;;;;;;;4995674;28;20034;-63
2022/01/11 12:47:05;;;;;;;12.90;9.57;;;;;;;;;;5004210;28;20034;-63
2022/01/11 12:49:31;;;;;;;15.27;10.03;;;;;;;;;;5011196;28;20104;-62
2022/01/11 12:52:09;;;;;;;33.57;11.20;;;;;;;;;;5010709;28;20029;-63
2022/01/11 12:54:38;;;;;;;18.27;9.80;;;;;;;;;;5005175;28;20026;-63
2022/01/11 12:57:06;;;;;;;21.37;10.40;;;;;;;;;;4999923;28;20022;-63
2022/01/11 12:59:34;;;;;;;15.47;9.03;;;;;;;;;;5001823;28;20030;-63
2022/01/11 13:02:08;;;;;;;13.33;9.10;;;;;;;;;;5013556;28;20101;-64
2022/01/11 13:04:40;;;;;;;14.70;8.87;;;;;;;;;;5013983;28;20018;-63
2022/01/11 13:10:20;;;;;;;12.57;8.50;;;;;;;;;;5006984;28;20064;-63
2022/01/11 13:13:09;;;;;;;12.13;8.17;;;;;;;;;;5011202;28;20050;-63
2022/01/11 13:15:41;;;;;;;14.43;8.63;;;;;;;;;;5008690;28;20026;-63
2022/01/11 13:18:31;;;;;;;14.03;9.03;;;;;;;;;;5006100;28;20034;-63
2022/01/11 13:21:02;;;;;;;13.20;9.50;;;;;;;;;;5007004;28;20497;-63
2022/01/11 13:23:34;;;;;;;15.43;9.83;;;;;;;;;;5010734;28;20121;-63
2022/01/11 13:26:10;;;;;;;15.47;9.53;;;;;;;;;;5008598;28;20428;-63
2022/01/11 13:28:47;;;;;;;12.70;9.00;;;;;;;;;;5012276;28;20028;-63
2022/01/11 13:31:14;;;;;;;14.50;9.17;;;;;;;;;;5011696;28;20054;-63
2022/01/11 13:33:44;;;;;;;13.33;8.80;;;;;;;;;;5013447;28;20034;-63
2022/01/11 13:36:10;;;;;;;20.40;9.23;;;;;;;;;;5014247;28;20046;-64
2022/01/11 13:38:36;;;;;;;13.80;9.23;;;;;;;;;;5012932;28;20096;-63
2022/01/11 13:41:03;;;;;;;16.70;9.27;;;;;;;;;;5013391;28;20056;-63
2022/01/11 13:43:54;;;;;;;13.90;8.30;;;;;;;;;;4994173;28;20038;-63
2022/01/11 13:46:23;;;;;;;14.90;8.90;;;;;;;;;;5009591;28;20026;-63
2022/01/11 13:48:50;;;;;;;9.70;6.53;;;;;;;;;;5012401;28;20022;-63
2022/01/11 13:51:16;;;;;;;8.63;5.67;;;;;;;;;;5005816;28;20041;-63
2022/01/11 13:53:43;;;;;;;8.83;6.00;;;;;;;;;;5004016;28;20042;-63
2022/01/11 13:56:11;;;;;;;9.37;6.30;;;;;;;;;;5013714;28;20037;-63
2022/01/11 13:58:39;;;;;;;8.37;5.63;;;;;;;;;;5012152;28;20035;-63
2022/01/11 14:01:06;;;;;;;9.57;6.00;;;;;;;;;;5011253;28;20034;-63
2022/01/11 14:03:32;;;;;;;10.07;6.43;;;;;;;;;;4997987;28;20032;-63
2022/01/11 14:06:09;;;;;;;11.30;6.77;;;;;;;;;;4996495;28;20033;-64
2022/01/11 14:08:38;;;;;;;10.50;6.57;;;;;;;;;;5009602;28;20038;-63
2022/01/11 14:11:09;;;;;;;8.23;6.00;;;;;;;;;;5012556;28;20038;-63
2022/01/11 14:13:36;;;;;;;6.93;4.83;;;;;;;;;;4995351;28;20069;-62
2022/01/11 14:16:15;;;;;;;9.20;4.70;;;;;;;;;;5012790;28;20383;-62
2022/01/11 14:18:42;;;;;;;6.97;4.57;;;;;;;;;;5012680;28;20030;-63
2022/01/11 14:21:29;;;;;;;6.10;5.00;;;;;;;;;;5012432;28;20026;-63
2022/01/11 14:23:56;;;;;;;10.13;6.20;;;;;;;;;;4999870;28;20391;-63
2022/01/11 14:26:32;;;;;;;9.87;5.87;;;;;;;;;;4994806;28;20030;-63
2022/01/11 14:28:58;;;;;;;7.13;5.10;;;;;;;;;;5009244;28;20091;-63